createdAt,value
2023-01-17T00:00:14.100Z,0.5
2023-01-17T00:01:22.647Z,0.5
2023-01-17T00:02:31.146Z,0.5
2023-01-17T00:03:39.403Z,0.5
2023-01-17T00:04:47.956Z,0.5
2023-01-17T00:05:56.408Z,0.5
2023-01-17T00:07:04.774Z,0.5
2023-01-17T00:08:13.324Z,0.4
2023-01-17T00:09:21.696Z,0.4
2023-01-17T00:10:30.077Z,0.4
2023-01-17T00:11:38.633Z,0.3
2023-01-17T00:12:46.969Z,0.3
2023-01-17T00:13:55.315Z,0.3
2023-01-17T00:15:03.933Z,0.4
2023-01-17T00:16:12.282Z,0.4
2023-01-17T00:17:20.657Z,0.4
2023-01-17T00:18:29.250Z,0.3
2023-01-17T00:19:37.611Z,0.3
2023-01-17T00:20:45.956Z,0.3
2023-01-17T00:21:54.543Z,0.4
2023-01-17T00:23:02.881Z,0.4
2023-01-17T00:24:11.246Z,0.4
2023-01-17T00:25:19.844Z,0.3
2023-01-17T00:26:28.201Z,0.3
2023-01-17T00:27:36.576Z,0.3
2023-01-17T00:28:45.193Z,0.4
2023-01-17T00:29:53.549Z,0.4
2023-01-17T00:31:02.002Z,0.4
2023-01-17T00:32:10.506Z,0.3
2023-01-17T00:33:18.862Z,0.3
2023-01-17T00:34:27.255Z,0.3
2023-01-17T00:35:35.842Z,0.4
2023-01-17T00:36:44.224Z,0.4
2023-01-17T00:37:52.588Z,0.4
2023-01-17T00:39:01.110Z,0.5
2023-01-17T00:40:09.526Z,0.5
2023-01-17T00:41:17.861Z,0.5
2023-01-17T00:42:26.417Z,0.4
2023-01-17T00:43:34.759Z,0.4
2023-01-17T00:44:43.153Z,0.4
2023-01-17T00:45:51.732Z,0.3
2023-01-17T00:47:00.110Z,0.3
2023-01-17T00:48:08.431Z,0.3
2023-01-17T00:49:17.033Z,0.4
2023-01-17T00:50:25.388Z,0.4
2023-01-17T00:51:33.739Z,0.4
2023-01-17T00:52:42.297Z,0.4
2023-01-17T00:53:50.678Z,0.4
2023-01-17T00:54:59.003Z,0.4
2023-01-17T00:56:07.561Z,0.5
2023-01-17T00:57:15.913Z,0.5
2023-01-17T00:58:24.264Z,0.5
2023-01-17T00:59:32.823Z,0.5
2023-01-17T01:00:41.204Z,0.5
2023-01-17T01:01:49.658Z,0.5
2023-01-17T01:02:58.109Z,0.4
2023-01-17T01:04:06.466Z,0.4
2023-01-17T01:05:14.820Z,0.4
2023-01-17T01:06:23.383Z,0.5
2023-01-17T01:07:31.734Z,0.5
2023-01-17T01:08:40.156Z,0.5
2023-01-17T01:09:48.734Z,0.6
2023-01-17T01:10:57.060Z,0.6
2023-01-17T01:12:05.444Z,0.6
2023-01-17T01:13:14.008Z,0.6
2023-01-17T01:14:22.399Z,0.6
2023-01-17T01:15:30.745Z,0.6
2023-01-17T01:16:39.285Z,0.6
2023-01-17T01:17:47.654Z,0.6
2023-01-17T01:18:55.989Z,0.6
2023-01-17T01:20:04.600Z,0.6
2023-01-17T01:21:12.955Z,0.6
2023-01-17T01:22:21.311Z,0.6
2023-01-17T01:23:29.882Z,0.7
2023-01-17T01:24:38.249Z,0.7
2023-01-17T01:25:46.613Z,0.7
2023-01-17T01:26:55.174Z,0.7
2023-01-17T01:28:03.531Z,0.7
2023-01-17T01:29:11.879Z,0.7
2023-01-17T01:30:20.449Z,0.5
2023-01-17T01:31:29.572Z,0.5
2023-01-17T01:32:37.883Z,0.5
2023-01-17T01:33:46.425Z,0.7
2023-01-17T01:34:54.818Z,0.7
2023-01-17T01:36:03.178Z,0.7
2023-01-17T01:37:11.735Z,0.6
2023-01-17T01:38:20.080Z,0.6
2023-01-17T01:39:28.463Z,0.6
2023-01-17T01:40:37.033Z,0.7
2023-01-17T01:41:45.410Z,0.7
2023-01-17T01:42:53.743Z,0.7
2023-01-17T01:44:02.328Z,0.8
2023-01-17T01:45:10.686Z,0.8
2023-01-17T01:46:19.037Z,0.8
2023-01-17T01:47:27.593Z,0.8
2023-01-17T01:48:35.959Z,0.8
2023-01-17T01:49:44.314Z,0.8
2023-01-17T01:50:52.906Z,0.9
2023-01-17T01:52:01.265Z,0.9
2023-01-17T01:53:09.610Z,0.9
2023-01-17T01:54:18.194Z,0.9
2023-01-17T01:55:26.553Z,0.9
2023-01-17T01:56:34.890Z,0.9
2023-01-17T01:57:43.484Z,0.9
2023-01-17T01:58:51.824Z,0.9
2023-01-17T02:00:00.196Z,0.9
2023-01-17T02:01:08.851Z,1.1
2023-01-17T02:02:17.108Z,1.1
2023-01-17T02:03:25.468Z,1.1
2023-01-17T02:04:34.063Z,1.3
2023-01-17T02:05:42.455Z,1.3
2023-01-17T02:06:50.818Z,1.3
2023-01-17T02:07:59.390Z,1.3
2023-01-17T02:09:07.733Z,1.3
2023-01-17T02:10:16.104Z,1.3
2023-01-17T02:11:24.657Z,1.4
2023-01-17T02:12:33.028Z,1.4
2023-01-17T02:13:41.387Z,1.4
2023-01-17T02:14:49.957Z,1.3
2023-01-17T02:15:58.309Z,1.3
2023-01-17T02:17:06.667Z,1.3
2023-01-17T02:18:15.275Z,1.4
2023-01-17T02:19:23.625Z,1.4
2023-01-17T02:20:31.984Z,1.4
2023-01-17T02:21:40.550Z,1.3
2023-01-17T02:22:48.916Z,1.3
2023-01-17T02:23:57.299Z,1.3
2023-01-17T02:25:05.854Z,1.6
2023-01-17T02:26:14.213Z,1.6
2023-01-17T02:27:22.596Z,1.6
2023-01-17T02:28:31.147Z,1.6
2023-01-17T02:29:39.540Z,1.6
2023-01-17T02:30:47.877Z,1.6
2023-01-17T02:31:56.482Z,1.4
2023-01-17T02:33:04.822Z,1.4
2023-01-17T02:34:13.175Z,1.4
2023-01-17T02:35:21.789Z,1.4
2023-01-17T02:36:30.116Z,1.4
2023-01-17T02:37:38.464Z,1.4
2023-01-17T02:38:47.054Z,1.8
2023-01-17T02:39:55.404Z,1.8
2023-01-17T02:41:03.770Z,1.8
2023-01-17T02:42:12.322Z,1.8
2023-01-17T02:43:20.685Z,1.8
2023-01-17T02:44:29.033Z,1.8
2023-01-17T02:45:37.643Z,1.9
2023-01-17T02:46:45.972Z,1.9
2023-01-17T02:47:54.327Z,1.9
2023-01-17T02:49:02.886Z,2.1
2023-01-17T02:50:11.226Z,2.1
2023-01-17T02:51:19.586Z,2.1
2023-01-17T02:52:28.137Z,1.7
2023-01-17T02:53:36.494Z,1.7
2023-01-17T02:54:44.850Z,1.7
2023-01-17T02:55:53.395Z,2
2023-01-17T02:57:01.778Z,2
2023-01-17T02:58:10.140Z,2
2023-01-17T02:59:18.704Z,2
2023-01-17T03:00:27.088Z,2
2023-01-17T03:01:35.598Z,2
2023-01-17T03:02:44.027Z,2
2023-01-17T03:03:52.323Z,2
2023-01-17T03:05:00.685Z,2
2023-01-17T03:06:09.239Z,1.8
2023-01-17T03:07:17.611Z,1.8
2023-01-17T03:08:25.982Z,1.8
2023-01-17T03:09:34.517Z,2.1
2023-01-17T03:10:42.923Z,2.1
2023-01-17T03:11:51.225Z,2.1
2023-01-17T03:12:59.821Z,2.2
2023-01-17T03:14:08.171Z,2.2
2023-01-17T03:15:16.527Z,2.2
2023-01-17T03:16:25.142Z,2
2023-01-17T03:17:33.485Z,2
2023-01-17T03:18:41.807Z,2
2023-01-17T03:19:50.384Z,2.2
2023-01-17T03:20:58.753Z,2.2
2023-01-17T03:22:07.124Z,2.2
2023-01-17T03:23:15.694Z,1.8
2023-01-17T03:24:24.048Z,1.8
2023-01-17T03:25:32.414Z,1.8
2023-01-17T03:26:40.971Z,1.8
2023-01-17T03:27:49.344Z,1.8
2023-01-17T03:28:57.671Z,1.8
2023-01-17T03:30:06.267Z,2.1
2023-01-17T03:31:14.641Z,2.1
2023-01-17T03:32:22.975Z,2.1
2023-01-17T03:33:31.553Z,1.9
2023-01-17T03:34:39.860Z,1.9
2023-01-17T03:35:48.261Z,1.9
2023-01-17T03:36:56.794Z,1.9
2023-01-17T03:38:05.136Z,1.9
2023-01-17T03:39:13.494Z,1.9
2023-01-17T03:40:22.086Z,2.1
2023-01-17T03:41:30.427Z,2.1
2023-01-17T03:42:38.796Z,2.1
2023-01-17T03:43:47.360Z,1.7
2023-01-17T03:44:55.716Z,1.7
2023-01-17T03:46:04.168Z,1.7
2023-01-17T03:47:12.631Z,1.8
2023-01-17T03:48:20.996Z,1.8
2023-01-17T03:49:29.382Z,1.8
2023-01-17T03:50:37.910Z,1.8
2023-01-17T03:51:46.245Z,1.8
2023-01-17T03:52:54.592Z,1.8
2023-01-17T03:54:03.154Z,2.2
2023-01-17T03:55:11.499Z,2.2
2023-01-17T03:56:19.867Z,2.2
2023-01-17T03:57:28.410Z,1.8
2023-01-17T03:58:36.747Z,1.8
2023-01-17T03:59:45.089Z,1.8
2023-01-17T04:00:53.747Z,2
2023-01-17T04:02:02.200Z,2
2023-01-17T04:03:10.384Z,2
2023-01-17T04:04:18.955Z,1.7
2023-01-17T04:05:27.317Z,1.7
2023-01-17T04:06:35.650Z,1.7
2023-01-17T04:07:44.218Z,1.6
2023-01-17T04:08:52.565Z,1.6
2023-01-17T04:10:00.943Z,1.6
2023-01-17T04:11:09.454Z,1.6
2023-01-17T04:12:17.803Z,1.6
2023-01-17T04:13:26.158Z,1.6
2023-01-17T04:14:34.714Z,1.8
2023-01-17T04:15:43.064Z,1.8
2023-01-17T04:16:51.504Z,1.8
2023-01-17T04:17:59.988Z,1.7
2023-01-17T04:19:08.318Z,1.7
2023-01-17T04:20:16.663Z,1.7
2023-01-17T04:21:25.248Z,2
2023-01-17T04:22:33.555Z,2
2023-01-17T04:23:41.918Z,2
2023-01-17T04:24:50.464Z,1.9
2023-01-17T04:25:58.822Z,1.9
2023-01-17T04:27:07.197Z,1.9
2023-01-17T04:28:15.810Z,1.6
2023-01-17T04:29:24.227Z,1.6
2023-01-17T04:30:32.653Z,1.6
2023-01-17T04:31:41.165Z,1.8
2023-01-17T04:32:49.488Z,1.8
2023-01-17T04:33:57.845Z,1.8
2023-01-17T04:35:06.377Z,2.1
2023-01-17T04:36:14.835Z,2.1
2023-01-17T04:37:23.457Z,2.1
2023-01-17T04:38:32.194Z,2
2023-01-17T04:39:40.537Z,2
2023-01-17T04:40:48.885Z,2
2023-01-17T04:41:57.446Z,1.9
2023-01-17T04:43:05.786Z,1.9
2023-01-17T04:44:14.143Z,1.9
2023-01-17T04:45:22.699Z,1.9
2023-01-17T04:46:31.050Z,1.9
2023-01-17T04:47:39.399Z,1.9
2023-01-17T04:48:47.975Z,1.9
2023-01-17T04:49:56.319Z,1.9
2023-01-17T04:51:04.681Z,1.9
2023-01-17T04:52:13.237Z,1.8
2023-01-17T04:53:21.608Z,1.8
2023-01-17T04:54:29.928Z,1.8
2023-01-17T04:55:38.503Z,1.8
2023-01-17T04:56:46.834Z,1.8
2023-01-17T04:57:55.176Z,1.8
2023-01-17T04:59:03.734Z,2.5
2023-01-17T05:00:12.103Z,2.5
2023-01-17T05:01:20.550Z,2.5
2023-01-17T05:02:29.014Z,2
2023-01-17T05:03:37.310Z,2
2023-01-17T05:04:45.660Z,2
2023-01-17T05:05:54.235Z,2
2023-01-17T05:07:02.567Z,2
2023-01-17T05:08:10.952Z,2
2023-01-17T05:09:19.592Z,2.1
2023-01-17T05:10:27.883Z,2.1
2023-01-17T05:11:36.235Z,2.1
2023-01-17T05:12:44.789Z,2.3
2023-01-17T05:13:53.127Z,2.3
2023-01-17T05:15:01.505Z,2.3
2023-01-17T05:16:10.077Z,2.3
2023-01-17T05:17:18.405Z,2.3
2023-01-17T05:18:26.760Z,2.3
2023-01-17T05:19:35.357Z,1.9
2023-01-17T05:20:43.754Z,1.9
2023-01-17T05:21:52.115Z,1.9
2023-01-17T05:23:00.689Z,1.8
2023-01-17T05:24:09.089Z,1.8
2023-01-17T05:25:17.481Z,1.8
2023-01-17T05:26:26.052Z,2
2023-01-17T05:27:34.433Z,2
2023-01-17T05:28:42.830Z,2
2023-01-17T05:29:51.388Z,2.4
2023-01-17T05:30:59.930Z,2.4
2023-01-17T05:32:08.166Z,2.4
2023-01-17T05:33:16.704Z,2
2023-01-17T05:34:25.087Z,2
2023-01-17T05:35:33.428Z,2
2023-01-17T05:36:41.976Z,2
2023-01-17T05:37:50.327Z,2
2023-01-17T05:38:58.666Z,2
2023-01-17T05:40:07.253Z,2.3
2023-01-17T05:41:15.639Z,2.3
2023-01-17T05:42:23.955Z,2.3
2023-01-17T05:43:32.492Z,11.6
2023-01-17T05:44:40.847Z,11.6
2023-01-17T05:45:49.216Z,11.6
2023-01-17T05:46:57.759Z,4.4
2023-01-17T05:48:06.146Z,4.4
2023-01-17T05:49:14.479Z,4.4
2023-01-17T05:50:23.064Z,3.1
2023-01-17T05:51:31.417Z,3.1
2023-01-17T05:52:39.744Z,3.1
2023-01-17T05:53:48.301Z,3.3
2023-01-17T05:54:56.659Z,3.3
2023-01-17T05:56:05.011Z,3.3
2023-01-17T05:57:13.574Z,2.1
2023-01-17T05:58:21.899Z,2.1
2023-01-17T05:59:36.833Z,2.1
2023-01-17T06:00:38.804Z,2.1
2023-01-17T06:01:47.139Z,2.1
2023-01-17T06:02:55.587Z,2.1
2023-01-17T06:04:04.026Z,2.7
2023-01-17T06:05:12.386Z,2.7
2023-01-17T06:06:20.734Z,2.7
2023-01-17T06:07:29.279Z,8.4
2023-01-17T06:08:37.633Z,8.4
2023-01-17T06:09:45.986Z,8.4
2023-01-17T06:10:54.548Z,2.1
2023-01-17T06:12:02.915Z,2.1
2023-01-17T06:13:11.303Z,2.1
2023-01-17T06:14:19.839Z,2.3
2023-01-17T06:15:28.201Z,2.3
2023-01-17T06:16:36.566Z,2.3
2023-01-17T06:17:45.142Z,2.9
2023-01-17T06:18:53.477Z,2.9
2023-01-17T06:20:01.952Z,2.9
2023-01-17T06:21:10.575Z,5.6
2023-01-17T06:22:19.019Z,5.6
2023-01-17T06:23:27.452Z,5.6
2023-01-17T06:24:36.055Z,9.8
2023-01-17T06:25:44.481Z,9.8
2023-01-17T06:26:52.798Z,9.8
2023-01-17T06:28:01.365Z,4.1
2023-01-17T06:29:09.739Z,4.1
2023-01-17T06:30:18.097Z,4.1
2023-01-17T06:31:26.731Z,2.5
2023-01-17T06:32:35.010Z,2.5
2023-01-17T06:33:43.367Z,2.5
2023-01-17T06:34:51.903Z,5.1
2023-01-17T06:36:00.291Z,5.1
2023-01-17T06:37:08.630Z,5.1
2023-01-17T06:38:17.205Z,7.8
2023-01-17T06:39:25.573Z,7.8
2023-01-17T06:40:33.902Z,7.8
2023-01-17T06:41:42.451Z,3.1
2023-01-17T06:42:50.800Z,3.1
2023-01-17T06:43:59.151Z,3.1
2023-01-17T06:45:07.726Z,2.1
2023-01-17T06:46:16.101Z,2.1
2023-01-17T06:47:24.401Z,2.1
2023-01-17T06:48:32.978Z,2.2
2023-01-17T06:49:41.310Z,2.2
2023-01-17T06:50:49.657Z,2.2
2023-01-17T06:51:58.212Z,2.3
2023-01-17T06:53:06.584Z,2.3
2023-01-17T06:54:14.939Z,2.3
2023-01-17T06:55:23.467Z,2.3
2023-01-17T06:56:31.791Z,2.3
2023-01-17T06:57:40.133Z,2.3
2023-01-17T06:58:48.699Z,2
2023-01-17T06:59:57.039Z,2
2023-01-17T07:01:05.500Z,2
2023-01-17T07:02:13.964Z,2
2023-01-17T07:03:22.295Z,2
2023-01-17T07:04:30.650Z,2
2023-01-17T07:05:39.221Z,5.6
2023-01-17T07:06:47.565Z,5.6
2023-01-17T07:07:55.906Z,5.6
2023-01-17T07:09:04.474Z,1.9
2023-01-17T07:10:12.836Z,1.9
2023-01-17T07:11:21.194Z,1.9
2023-01-17T07:12:29.755Z,1.9
2023-01-17T07:13:38.105Z,1.9
2023-01-17T07:14:46.427Z,1.9
2023-01-17T07:15:55.053Z,1.7
2023-01-17T07:17:03.355Z,1.7
2023-01-17T07:18:11.696Z,1.7
2023-01-17T07:19:20.229Z,1.9
2023-01-17T07:20:28.605Z,1.9
2023-01-17T07:21:36.960Z,1.9
2023-01-17T07:22:45.494Z,1.9
2023-01-17T07:23:53.846Z,1.9
2023-01-17T07:25:02.284Z,1.9
2023-01-17T07:26:10.769Z,2.8
2023-01-17T07:27:19.113Z,2.8
2023-01-17T07:28:27.469Z,2.8
2023-01-17T07:29:36.055Z,1.8
2023-01-17T07:30:44.383Z,1.8
2023-01-17T07:31:52.719Z,1.8
2023-01-17T07:33:01.307Z,1.8
2023-01-17T07:34:09.630Z,1.8
2023-01-17T07:35:17.985Z,1.8
2023-01-17T07:36:26.545Z,1.3
2023-01-17T07:37:34.889Z,1.3
2023-01-17T07:38:43.229Z,1.3
2023-01-17T07:39:51.804Z,2.6
2023-01-17T07:41:00.166Z,2.6
2023-01-17T07:42:08.529Z,2.6
2023-01-17T07:43:17.089Z,1.7
2023-01-17T07:44:25.426Z,1.7
2023-01-17T07:45:33.782Z,1.7
2023-01-17T07:46:42.415Z,4.1
2023-01-17T07:47:50.690Z,4.1
2023-01-17T07:48:59.061Z,4.1
2023-01-17T07:50:07.600Z,5.7
2023-01-17T07:51:15.948Z,5.7
2023-01-17T07:52:24.286Z,5.7
2023-01-17T07:53:32.839Z,3.7
2023-01-17T07:54:41.195Z,3.7
2023-01-17T07:55:49.549Z,3.7
2023-01-17T07:56:58.109Z,3.3
2023-01-17T07:58:06.461Z,3.3
2023-01-17T07:59:14.808Z,3.3
2023-01-17T08:00:23.385Z,4.6
2023-01-17T08:01:31.877Z,4.6
2023-01-17T08:02:40.092Z,4.6
2023-01-17T08:03:48.692Z,2.7
2023-01-17T08:04:57.013Z,2.7
2023-01-17T08:06:05.361Z,2.7
2023-01-17T08:07:13.899Z,2.8
2023-01-17T08:08:22.242Z,2.8
2023-01-17T08:09:30.615Z,2.8
2023-01-17T08:10:39.161Z,2.7
2023-01-17T08:11:47.519Z,2.7
2023-01-17T08:12:55.863Z,2.7
2023-01-17T08:14:04.419Z,2.7
2023-01-17T08:15:12.814Z,2.7
2023-01-17T08:16:21.374Z,2.7
2023-01-17T08:17:29.926Z,2.8
2023-01-17T08:18:38.293Z,2.8
2023-01-17T08:19:46.641Z,2.8
2023-01-17T08:20:55.257Z,20.799999
2023-01-17T08:22:03.583Z,20.799999
2023-01-17T08:23:11.935Z,20.799999
2023-01-17T08:24:20.501Z,2.4
2023-01-17T08:25:28.917Z,2.4
2023-01-17T08:26:37.247Z,2.4
2023-01-17T08:27:45.806Z,3.1
2023-01-17T08:28:54.152Z,3.1
2023-01-17T08:30:02.516Z,3.1
2023-01-17T08:31:11.200Z,2.3
2023-01-17T08:32:19.460Z,2.3
2023-01-17T08:33:27.821Z,2.3
2023-01-17T08:34:37.068Z,3.5
2023-01-17T08:35:45.419Z,3.5
2023-01-17T08:36:53.814Z,3.5
2023-01-17T08:38:02.343Z,2.6
2023-01-17T08:39:10.673Z,2.6
2023-01-17T08:40:19.583Z,2.6
2023-01-17T08:41:28.120Z,1.9
2023-01-17T08:42:36.489Z,1.9
2023-01-17T08:43:44.837Z,1.9
2023-01-17T08:44:53.479Z,2.4
2023-01-17T08:46:01.843Z,2.4
2023-01-17T08:47:10.159Z,2.4
2023-01-17T08:48:18.737Z,2.4
2023-01-17T08:49:27.987Z,2.4
2023-01-17T08:50:36.335Z,2.4
2023-01-17T08:51:44.899Z,2.8
2023-01-17T08:52:53.255Z,2.8
2023-01-17T08:54:01.581Z,2.8
2023-01-17T08:55:10.179Z,2.9
2023-01-17T08:56:18.482Z,2.9
2023-01-17T08:57:26.827Z,2.9
2023-01-17T08:58:35.395Z,2.3
2023-01-17T08:59:43.806Z,2.3
2023-01-17T09:00:52.190Z,2.3
2023-01-17T09:02:00.823Z,3.3
2023-01-17T09:03:09.093Z,3.3
2023-01-17T09:04:17.463Z,3.3
2023-01-17T09:05:26.004Z,2.4
2023-01-17T09:06:34.365Z,2.4
2023-01-17T09:07:42.689Z,2.4
2023-01-17T09:08:51.257Z,2.5
2023-01-17T09:09:59.592Z,2.5
2023-01-17T09:11:07.935Z,2.5
2023-01-17T09:12:16.479Z,2.3
2023-01-17T09:13:24.840Z,2.3
2023-01-17T09:14:33.180Z,2.3
2023-01-17T09:15:41.742Z,2.1
2023-01-17T09:16:50.161Z,2.1
2023-01-17T09:17:58.444Z,2.1
2023-01-17T09:19:07.011Z,2.4
2023-01-17T09:20:15.379Z,2.4
2023-01-17T09:21:23.703Z,2.4
2023-01-17T09:22:32.248Z,2.8
2023-01-17T09:23:40.621Z,2.8
2023-01-17T09:24:49.010Z,2.8
2023-01-17T09:25:57.583Z,3.1
2023-01-17T09:27:05.908Z,3.1
2023-01-17T09:28:14.238Z,3.1
2023-01-17T09:29:22.807Z,2.1
2023-01-17T09:30:31.191Z,2.1
2023-01-17T09:31:39.523Z,2.1
2023-01-17T09:32:48.100Z,3.5
2023-01-17T09:33:56.449Z,3.5
2023-01-17T09:35:04.841Z,3.5
2023-01-17T09:36:13.395Z,2.4
2023-01-17T09:37:21.797Z,2.4
2023-01-17T09:38:30.123Z,2.4
2023-01-17T09:39:38.694Z,2.3
2023-01-17T09:40:47.085Z,2.3
2023-01-17T09:41:55.394Z,2.3
2023-01-17T09:43:03.987Z,2
2023-01-17T09:44:12.377Z,2
2023-01-17T09:45:20.748Z,2
2023-01-17T09:46:29.322Z,2
2023-01-17T09:47:37.695Z,2
2023-01-17T09:48:46.075Z,2
2023-01-17T09:49:54.661Z,2.6
2023-01-17T09:51:03.013Z,2.6
2023-01-17T09:52:11.424Z,2.6
2023-01-17T09:53:19.949Z,2.3
2023-01-17T09:54:28.335Z,2.3
2023-01-17T09:55:36.716Z,2.3
2023-01-17T09:56:45.303Z,2
2023-01-17T09:57:53.619Z,2
2023-01-17T09:59:01.991Z,2
2023-01-17T10:00:10.612Z,1.7
2023-01-17T10:01:19.172Z,1.7
2023-01-17T10:02:27.464Z,1.7
2023-01-17T10:03:35.920Z,1.6
2023-01-17T10:04:44.224Z,1.6
2023-01-17T10:05:52.600Z,1.6
2023-01-17T10:07:01.181Z,1.6
2023-01-17T10:08:09.534Z,1.6
2023-01-17T10:09:17.899Z,1.6
2023-01-17T10:10:26.456Z,1.5
2023-01-17T10:11:34.828Z,1.5
2023-01-17T10:12:43.212Z,1.5
2023-01-17T10:13:51.760Z,2.3
2023-01-17T10:15:00.116Z,2.3
2023-01-17T10:16:08.452Z,2.3
2023-01-17T10:17:17.009Z,2.6
2023-01-17T10:18:29.728Z,2.6
2023-01-17T10:19:33.711Z,2.6
2023-01-17T10:20:42.310Z,2
2023-01-17T10:21:50.641Z,2
2023-01-17T10:22:58.991Z,2
2023-01-17T10:24:07.543Z,1.7
2023-01-17T10:25:15.961Z,1.7
2023-01-17T10:26:24.337Z,1.7
2023-01-17T10:27:32.888Z,2.4
2023-01-17T10:28:41.282Z,2.4
2023-01-17T10:29:49.625Z,2.4
2023-01-17T10:30:58.305Z,2
2023-01-17T10:32:06.551Z,2
2023-01-17T10:33:14.977Z,2
2023-01-17T10:34:23.585Z,1.6
2023-01-17T10:35:31.938Z,1.6
2023-01-17T10:36:40.349Z,1.6
2023-01-17T10:37:48.890Z,2.1
2023-01-17T10:38:57.263Z,2.1
2023-01-17T10:40:05.639Z,2.1
2023-01-17T10:41:14.208Z,2
2023-01-17T10:42:22.556Z,2
2023-01-17T10:43:30.974Z,2
2023-01-17T10:44:39.566Z,2.2
2023-01-17T10:45:47.893Z,2.2
2023-01-17T10:46:56.237Z,2.2
2023-01-17T10:48:04.793Z,2.4
2023-01-17T10:49:13.134Z,2.4
2023-01-17T10:50:21.486Z,2.4
2023-01-17T10:51:30.048Z,3.1
2023-01-17T10:52:38.444Z,3.1
2023-01-17T10:53:46.849Z,3.1
2023-01-17T10:54:55.440Z,2.2
2023-01-17T10:56:03.820Z,2.2
2023-01-17T10:57:12.160Z,2.2
2023-01-17T10:58:20.716Z,2.1
2023-01-17T10:59:29.071Z,2.1
2023-01-17T11:00:37.473Z,2.1
2023-01-17T11:01:46.185Z,2.1
2023-01-17T11:02:54.406Z,2.1
2023-01-17T11:04:02.685Z,2.1
2023-01-17T11:05:12.678Z,2.1
2023-01-17T11:06:21.010Z,2.1
2023-01-17T11:07:29.350Z,2.1
2023-01-17T11:08:37.914Z,2.2
2023-01-17T11:09:46.246Z,2.2
2023-01-17T11:10:54.597Z,2.2
2023-01-17T11:12:03.153Z,2
2023-01-17T11:13:11.480Z,2
2023-01-17T11:14:19.838Z,2
2023-01-17T11:15:28.426Z,2
2023-01-17T11:16:36.774Z,2
2023-01-17T11:17:45.126Z,2
2023-01-17T11:18:53.674Z,2
2023-01-17T11:20:02.046Z,2
2023-01-17T11:21:10.384Z,2
2023-01-17T11:22:18.968Z,2.2
2023-01-17T11:23:27.313Z,2.2
2023-01-17T11:24:35.671Z,2.2
2023-01-17T11:25:44.218Z,1.9
2023-01-17T11:26:52.573Z,1.9
2023-01-17T11:28:00.920Z,1.9
2023-01-17T11:29:09.471Z,1.9
2023-01-17T11:30:17.823Z,1.9
2023-01-17T11:31:26.331Z,1.9
2023-01-17T11:32:34.752Z,1.9
2023-01-17T11:33:43.072Z,1.9
2023-01-17T11:34:51.412Z,1.9
2023-01-17T11:35:59.979Z,2
2023-01-17T11:37:08.340Z,2
2023-01-17T11:38:16.669Z,2
2023-01-17T11:39:25.245Z,1.5
2023-01-17T11:40:33.572Z,1.5
2023-01-17T11:41:41.931Z,1.5
2023-01-17T11:42:50.499Z,1.5
2023-01-17T11:43:58.851Z,1.5
2023-01-17T11:45:07.195Z,1.5
2023-01-17T11:46:15.863Z,1.6
2023-01-17T11:47:24.145Z,1.6
2023-01-17T11:48:32.534Z,1.6
2023-01-17T11:49:41.056Z,1.8
2023-01-17T11:50:49.423Z,1.8
2023-01-17T11:51:57.787Z,1.8
2023-01-17T11:53:06.351Z,1.7
2023-01-17T11:54:14.715Z,1.7
2023-01-17T11:55:23.058Z,1.7
2023-01-17T11:56:31.636Z,1.7
2023-01-17T11:57:39.984Z,1.7
2023-01-17T11:58:48.344Z,1.7
2023-01-17T11:59:56.896Z,1.7
2023-01-17T12:01:05.317Z,1.7
2023-01-17T12:02:13.594Z,1.7
2023-01-17T12:03:22.164Z,1.6
2023-01-17T12:04:30.516Z,1.6
2023-01-17T12:05:38.858Z,1.6
2023-01-17T12:06:57.049Z,2
2023-01-17T12:07:55.785Z,2
2023-01-17T12:09:04.138Z,2
2023-01-17T12:10:12.710Z,1.7
2023-01-17T12:11:21.046Z,1.7
2023-01-17T12:12:29.404Z,1.7
2023-01-17T12:13:37.967Z,1.8
2023-01-17T12:14:46.302Z,1.8
2023-01-17T12:15:54.707Z,1.8
2023-01-17T12:17:03.207Z,1.7
2023-01-17T12:18:11.555Z,1.7
2023-01-17T12:19:19.909Z,1.7
2023-01-17T12:20:28.506Z,1.8
2023-01-17T12:21:36.816Z,1.8
2023-01-17T12:22:45.150Z,1.8
2023-01-17T12:23:53.744Z,1.3
2023-01-17T12:25:02.091Z,1.3
2023-01-17T12:26:10.458Z,1.3
2023-01-17T12:27:19.030Z,1.2
2023-01-17T12:28:27.409Z,1.2
2023-01-17T12:29:35.751Z,1.2
2023-01-17T12:30:44.345Z,1.7
2023-01-17T12:31:52.683Z,1.7
2023-01-17T12:33:01.026Z,1.7
2023-01-17T12:34:09.577Z,1.7
2023-01-17T12:35:17.938Z,1.7
2023-01-17T12:36:26.322Z,1.7
2023-01-17T12:37:34.871Z,1.4
2023-01-17T12:38:43.242Z,1.4
2023-01-17T12:39:51.554Z,1.4
2023-01-17T12:41:00.154Z,1.3
2023-01-17T12:42:08.702Z,1.3
2023-01-17T12:43:17.081Z,1.3
2023-01-17T12:44:25.641Z,2
2023-01-17T12:45:34.017Z,2
2023-01-17T12:46:42.446Z,2
2023-01-17T12:47:50.932Z,1.7
2023-01-17T12:48:59.319Z,1.7
2023-01-17T12:50:07.657Z,1.7
2023-01-17T12:51:16.206Z,1.5
2023-01-17T12:52:24.582Z,1.5
2023-01-17T12:53:32.891Z,1.5
2023-01-17T12:54:41.479Z,4.1
2023-01-17T12:55:49.815Z,4.1
2023-01-17T12:56:58.152Z,4.1
2023-01-17T12:58:06.718Z,24.4
2023-01-17T12:59:15.051Z,24.4
2023-01-17T13:00:23.564Z,24.4
2023-01-17T13:01:32.071Z,58.400002
2023-01-17T13:02:40.299Z,58.400002
2023-01-17T13:03:48.675Z,58.400002
2023-01-17T13:04:58.638Z,2.5
2023-01-17T13:06:05.585Z,2.5
2023-01-17T13:07:13.930Z,2.5
2023-01-17T13:08:22.505Z,20.799999
2023-01-17T13:09:30.841Z,20.799999
2023-01-17T13:10:39.192Z,20.799999
2023-01-17T13:11:47.767Z,7.4
2023-01-17T13:12:56.112Z,7.4
2023-01-17T13:14:04.476Z,7.4
2023-01-17T13:15:13.023Z,61.799999
2023-01-17T13:16:21.397Z,61.799999
2023-01-17T13:17:29.714Z,61.799999
2023-01-17T13:18:38.315Z,5.6
2023-01-17T13:19:46.644Z,5.6
2023-01-17T13:20:55.003Z,5.6
2023-01-17T13:22:03.577Z,1.8
2023-01-17T13:23:11.953Z,1.8
2023-01-17T13:24:20.365Z,1.8
2023-01-17T13:25:28.853Z,1.3
2023-01-17T13:26:37.210Z,1.3
2023-01-17T13:27:45.586Z,1.3
2023-01-17T13:28:55.006Z,2.4
2023-01-17T13:30:02.511Z,2.4
2023-01-17T13:31:10.880Z,2.4
2023-01-17T13:32:19.435Z,1.4
2023-01-17T13:33:27.784Z,1.4
2023-01-17T13:34:36.114Z,1.4
2023-01-17T13:35:44.677Z,177.6
2023-01-17T13:36:53.005Z,177.6
2023-01-17T13:38:01.369Z,177.6
2023-01-17T13:39:09.926Z,64.599998
2023-01-17T13:40:18.353Z,64.599998
2023-01-17T13:41:26.648Z,64.599998
2023-01-17T13:42:35.204Z,228.39999
2023-01-17T13:43:43.548Z,228.39999
2023-01-17T13:44:51.894Z,228.39999
2023-01-17T13:46:00.561Z,44.900002
2023-01-17T13:47:08.811Z,44.900002
2023-01-17T13:48:17.162Z,44.900002
2023-01-17T13:49:25.720Z,8.8
2023-01-17T13:50:34.074Z,8.8
2023-01-17T13:51:42.430Z,8.8
2023-01-17T13:52:51.005Z,250.1
2023-01-17T13:53:59.392Z,250.1
2023-01-17T13:55:07.691Z,250.1
2023-01-17T13:56:16.280Z,14.5
2023-01-17T13:57:24.605Z,14.5
2023-01-17T13:58:32.937Z,14.5
2023-01-17T13:59:41.510Z,10
2023-01-17T14:00:49.962Z,10
2023-01-17T14:01:58.312Z,10
2023-01-17T14:03:06.785Z,5
2023-01-17T14:04:15.122Z,5
2023-01-17T14:05:23.479Z,5
2023-01-17T14:06:32.040Z,7.2
2023-01-17T14:07:40.381Z,7.2
2023-01-17T14:08:48.744Z,7.2
2023-01-17T14:09:57.292Z,2.3
2023-01-17T14:11:06.460Z,2.3
2023-01-17T14:12:14.016Z,2.3
2023-01-17T14:13:22.582Z,1.4
2023-01-17T14:14:30.921Z,1.4
2023-01-17T14:15:39.280Z,1.4
2023-01-17T14:16:47.892Z,1.3
2023-01-17T14:17:56.195Z,1.3
2023-01-17T14:19:04.511Z,1.3
2023-01-17T14:20:13.072Z,1.6
2023-01-17T14:21:21.411Z,1.6
2023-01-17T14:22:29.775Z,1.6
2023-01-17T14:23:38.302Z,6.6
2023-01-17T14:24:46.649Z,6.6
2023-01-17T14:25:55.017Z,6.6
2023-01-17T14:27:03.582Z,1.3
2023-01-17T14:28:11.943Z,1.3
2023-01-17T14:29:20.271Z,1.3
2023-01-17T14:30:28.838Z,1.6
2023-01-17T15:04:36.380Z,0
2023-01-17T15:05:44.701Z,0
2023-01-17T15:06:53.035Z,0
2023-01-17T15:08:01.600Z,20.5
2023-01-17T15:09:09.960Z,20.5
2023-01-17T15:10:18.335Z,20.5
2023-01-17T15:11:26.885Z,4.5
2023-01-17T15:12:35.215Z,4.5
2023-01-17T15:13:44.935Z,4.5
2023-01-17T15:14:52.094Z,2.6
2023-01-17T15:16:00.456Z,2.6
2023-01-17T15:17:08.791Z,2.6
2023-01-17T15:18:17.343Z,2.7
2023-01-17T15:19:25.689Z,2.7
2023-01-17T15:20:34.062Z,2.7
2023-01-17T15:21:42.724Z,2.2
2023-01-17T15:22:51.223Z,2.2
2023-01-17T15:23:59.565Z,2.2
2023-01-17T15:25:08.113Z,2.3
2023-01-17T15:26:16.484Z,2.3
2023-01-17T15:27:24.829Z,2.3
2023-01-17T15:28:33.380Z,3.1
2023-01-17T15:29:41.787Z,3.1
2023-01-17T15:30:52.167Z,3.1
2023-01-17T15:31:58.703Z,2.9
2023-01-17T15:33:07.042Z,2.9
2023-01-17T15:34:15.518Z,2.9
2023-01-17T15:35:24.088Z,2.5
2023-01-17T15:36:32.475Z,2.5
2023-01-17T15:37:40.775Z,2.5
2023-01-17T15:38:49.328Z,2.6
2023-01-17T15:39:57.663Z,2.6
2023-01-17T15:41:06.019Z,2.6
2023-01-17T15:42:14.568Z,4.3
2023-01-17T15:43:22.924Z,4.3
2023-01-17T15:44:46.640Z,4.3
2023-01-17T15:45:39.892Z,3
2023-01-17T15:46:48.206Z,3
2023-01-17T15:47:56.522Z,3
2023-01-17T15:49:05.065Z,2.8
2023-01-17T15:50:13.416Z,2.8
2023-01-17T15:51:21.760Z,2.8
2023-01-17T15:52:30.321Z,5.2
2023-01-17T15:53:38.647Z,5.2
2023-01-17T15:54:46.989Z,5.2
2023-01-17T15:55:55.546Z,3.6
2023-01-17T15:57:03.898Z,3.6
2023-01-17T15:58:12.227Z,3.6
2023-01-17T15:59:20.780Z,2.3
2023-01-17T16:00:29.130Z,2.3
2023-01-17T16:01:37.608Z,2.3
2023-01-17T16:02:46.846Z,3.2
2023-01-17T16:03:55.255Z,3.2
2023-01-17T16:05:03.577Z,3.2
2023-01-17T16:06:12.151Z,4.6
2023-01-17T16:07:20.501Z,4.6
2023-01-17T16:08:28.882Z,4.6
2023-01-17T16:09:37.435Z,3.4
2023-01-17T16:11:09.731Z,3.4
2023-01-17T16:12:18.065Z,3.4
2023-01-17T16:13:26.643Z,3.2
2023-01-17T16:14:51.490Z,3.2
2023-01-17T16:15:43.546Z,3.2